createdAt,value
2019-05-07T00:02:19.339Z,59.38
2019-05-07T00:04:55.284Z,59.51
2019-05-07T00:07:32.062Z,59.45
2019-05-07T00:10:08.018Z,59.40
2019-05-07T00:12:43.974Z,59.44
2019-05-07T00:15:19.943Z,59.57
2019-05-07T00:17:55.886Z,59.44
2019-05-07T00:20:32.681Z,59.71
2019-05-07T00:23:08.935Z,59.98
2019-05-07T00:25:44.893Z,59.94
2019-05-07T00:28:22.826Z,60.01
2019-05-07T00:30:58.433Z,60.10
2019-05-07T00:33:35.629Z,60.32
2019-05-07T00:36:28.164Z,60.41
2019-05-07T00:39:23.690Z,60.43
2019-05-07T00:42:04.142Z,60.51
2019-05-07T00:45:13.201Z,60.78
2019-05-07T00:47:35.717Z,60.89
2019-05-07T00:50:13.421Z,60.74
2019-05-07T00:52:49.369Z,60.62
2019-05-07T00:55:25.326Z,60.80
2019-05-07T00:58:02.373Z,60.68
2019-05-07T01:00:38.878Z,60.82
2019-05-07T01:03:14.841Z,60.54
2019-05-07T01:05:52.776Z,60.80
2019-05-07T01:08:28.497Z,61.04
2019-05-07T01:11:04.555Z,60.95
2019-05-07T01:13:40.500Z,60.86
2019-05-07T01:16:16.371Z,60.98
2019-05-07T01:18:53.775Z,60.78
2019-05-07T01:21:32.513Z,60.76
2019-05-07T01:24:08.831Z,60.74
2019-05-07T01:26:44.790Z,60.83
2019-05-07T01:29:22.602Z,60.96
2019-05-07T01:32:12.699Z,60.99
2019-05-07T01:34:52.331Z,60.76
2019-05-07T01:37:27.965Z,60.66
2019-05-07T01:40:04.037Z,60.94
2019-05-07T01:42:42.350Z,61.10
2019-05-07T01:45:17.884Z,61.20
2019-05-07T01:47:53.843Z,61.74
2019-05-07T01:50:32.094Z,61.90
2019-05-07T01:53:07.903Z,61.99
2019-05-07T01:55:43.861Z,62.22
2019-05-07T01:58:21.993Z,62.42
2019-05-07T02:00:57.655Z,62.71
2019-05-07T02:03:35.108Z,62.95
2019-05-07T02:06:13.206Z,63.05
2019-05-07T02:08:53.893Z,63.30
2019-05-07T02:11:34.147Z,63.67
2019-05-07T02:14:10.107Z,63.87
2019-05-07T02:16:46.474Z,63.78
2019-05-07T02:19:22.429Z,63.93
2019-05-07T02:21:59.512Z,64.36
2019-05-07T02:24:35.468Z,64.45
2019-05-07T02:27:12.618Z,64.63
2019-05-07T02:29:48.825Z,64.63
2019-05-07T02:32:24.773Z,64.97
2019-05-07T02:35:03.995Z,65.15
2019-05-07T02:37:48.345Z,65.41
2019-05-07T02:40:22.707Z,65.60
2019-05-07T02:42:57.529Z,65.78
2019-05-07T02:45:53.590Z,65.89
2019-05-07T02:48:34.007Z,66.09
2019-05-07T02:51:14.446Z,66.37
2019-05-07T02:53:55.013Z,66.59
2019-05-07T02:56:33.262Z,66.93
2019-05-07T02:59:08.561Z,66.93
2019-05-07T03:01:44.734Z,66.87
2019-05-07T03:04:20.695Z,67.28
2019-05-07T03:06:56.636Z,67.50
2019-05-07T03:09:33.012Z,67.59
2019-05-07T03:12:08.969Z,67.68
2019-05-07T03:14:44.861Z,67.78
2019-05-07T03:17:24.247Z,67.96
2019-05-07T03:20:03.181Z,68.00
2019-05-07T03:22:37.907Z,67.99
2019-05-07T03:25:15.612Z,68.17
2019-05-07T03:27:53.590Z,68.26
2019-05-07T03:30:35.540Z,68.07
2019-05-07T03:33:15.694Z,68.41
2019-05-07T03:35:49.258Z,68.17
2019-05-07T03:38:25.220Z,68.15
2019-05-07T03:41:03.740Z,67.93
2019-05-07T03:43:38.969Z,67.71
2019-05-07T03:46:19.154Z,67.48
2019-05-07T03:48:55.083Z,66.92
2019-05-07T03:51:32.925Z,66.37
2019-05-07T03:54:08.633Z,65.73
2019-05-07T03:56:44.560Z,64.97
2019-05-07T03:59:23.119Z,64.30
2019-05-07T04:01:58.140Z,63.23
2019-05-07T04:04:34.095Z,61.91
2019-05-07T04:07:13.510Z,61.01
2019-05-07T04:09:47.761Z,60.17
2019-05-07T04:12:24.221Z,58.27
2019-05-07T04:15:03.417Z,55.07
2019-05-07T04:17:42.975Z,51.27
2019-05-07T04:20:19.336Z,48.20
2019-05-07T04:22:55.345Z,45.03
2019-05-07T04:25:36.532Z,43.37
2019-05-07T04:28:24.181Z,40.83
2019-05-07T04:31:02.923Z,39.77
2019-05-07T04:33:43.688Z,38.56
2019-05-07T04:36:22.768Z,37.67
2019-05-07T04:38:57.415Z,37.03
2019-05-07T04:41:33.331Z,36.57
2019-05-07T04:44:09.237Z,38.34
2019-05-07T04:46:48.116Z,42.25
2019-05-07T04:49:23.814Z,43.40
2019-05-07T04:52:05.460Z,43.74
2019-05-07T04:54:43.740Z,46.83
2019-05-07T04:57:25.985Z,50.36
2019-05-07T05:00:03.400Z,52.70
2019-05-07T05:02:43.459Z,55.33
2019-05-07T05:05:19.855Z,57.19
2019-05-07T05:07:55.846Z,58.25
2019-05-07T05:10:33.656Z,58.85
2019-05-07T05:13:09.491Z,60.03
2019-05-07T05:15:45.435Z,60.56
2019-05-07T05:18:22.040Z,60.70
2019-05-07T05:21:03.421Z,60.91
2019-05-07T05:23:41.931Z,61.48
2019-05-07T05:26:18.077Z,61.08
2019-05-07T05:28:54.035Z,61.61
2019-05-07T05:31:29.978Z,61.43
2019-05-07T05:34:05.949Z,61.37
2019-05-07T05:36:42.656Z,61.22
2019-05-07T05:39:18.670Z,60.80
2019-05-07T05:41:56.108Z,60.77
2019-05-07T05:44:33.857Z,59.96
2019-05-07T05:47:11.730Z,59.90
2019-05-07T05:49:47.522Z,60.33
2019-05-07T05:52:44.062Z,60.25
2019-05-07T05:55:22.595Z,59.87
2019-05-07T05:58:16.342Z,60.29
2019-05-07T06:00:53.958Z,59.95
2019-05-07T06:03:46.594Z,59.82
2019-05-07T06:06:24.076Z,59.71
2019-05-07T06:09:13.969Z,59.57
2019-05-07T06:11:51.988Z,60.18
2019-05-07T06:14:33.108Z,59.85
2019-05-07T06:17:32.059Z,59.64
2019-05-07T06:20:13.534Z,59.98
2019-05-07T06:23:07.606Z,59.81
2019-05-07T06:25:45.094Z,60.92
2019-05-07T06:28:22.330Z,60.56
2019-05-07T06:30:58.452Z,59.65
2019-05-07T06:33:34.409Z,60.38
2019-05-07T06:36:12.457Z,60.22
2019-05-07T06:38:49.589Z,60.40
2019-05-07T06:41:43.363Z,60.01
2019-05-07T06:44:22.367Z,59.83
2019-05-07T06:46:58.475Z,59.47
2019-05-07T06:49:34.521Z,59.79
2019-05-07T06:52:12.272Z,59.36
2019-05-07T06:54:48.378Z,59.09
2019-05-07T06:57:25.963Z,58.56
2019-05-07T07:00:12.988Z,58.32
2019-05-07T07:02:53.653Z,57.71
2019-05-07T07:05:34.215Z,58.12
2019-05-07T07:08:12.492Z,57.64
2019-05-07T07:11:02.748Z,58.12
2019-05-07T07:13:39.293Z,57.89
2019-05-07T07:16:15.240Z,58.98
2019-05-07T07:18:53.058Z,58.41
2019-05-07T07:21:28.800Z,59.37
2019-05-07T07:24:04.972Z,58.08
2019-05-07T07:26:42.224Z,57.70
2019-05-07T07:29:21.504Z,56.85
2019-05-07T07:32:02.453Z,56.01
2019-05-07T07:34:42.538Z,55.97
2019-05-07T07:37:31.998Z,56.43
2019-05-07T07:40:27.896Z,55.34
2019-05-07T07:43:07.021Z,55.85
2019-05-07T07:45:42.473Z,55.42
2019-05-07T07:48:18.744Z,55.26
2019-05-07T07:50:54.704Z,55.62
2019-05-07T07:53:33.108Z,55.94
2019-05-07T07:56:25.275Z,55.75
2019-05-07T07:59:18.042Z,55.95
2019-05-07T08:02:13.926Z,55.36
2019-05-07T08:04:49.888Z,55.57
2019-05-07T08:07:25.839Z,55.88
2019-05-07T08:10:02.684Z,56.98
2019-05-07T08:12:38.778Z,56.01
2019-05-07T08:15:20.869Z,54.66
2019-05-07T08:17:53.649Z,55.65
2019-05-07T08:20:29.706Z,55.24
2019-05-07T08:23:05.675Z,55.14
2019-05-07T08:25:52.480Z,52.92
2019-05-07T08:28:28.536Z,54.26
2019-05-07T08:31:16.267Z,54.11
2019-05-07T08:34:14.025Z,54.43
2019-05-07T08:36:48.232Z,54.71
2019-05-07T08:39:25.218Z,52.35
2019-05-07T08:42:02.050Z,53.43
2019-05-07T08:44:39.804Z,53.77
2019-05-07T08:47:17.307Z,53.93
2019-05-07T08:49:53.255Z,53.03
2019-05-07T08:52:29.208Z,54.13
2019-05-07T08:55:07.916Z,52.25
2019-05-07T08:57:46.003Z,51.68
2019-05-07T09:00:23.823Z,52.83
2019-05-07T09:03:01.648Z,53.70
2019-05-07T09:05:38.411Z,52.73
2019-05-07T09:08:14.381Z,50.48
2019-05-07T09:10:52.389Z,51.75
2019-05-07T09:13:28.136Z,51.50
2019-05-07T09:16:04.296Z,49.47
2019-05-07T09:18:42.210Z,48.67
2019-05-07T09:21:18.243Z,49.23
2019-05-07T09:23:54.145Z,50.76
2019-05-07T09:26:32.336Z,49.72
2019-05-07T09:29:11.834Z,50.06
2019-05-07T09:31:49.443Z,50.52
2019-05-07T09:34:26.937Z,49.15
2019-05-07T09:37:04.437Z,48.39
2019-05-07T09:39:42.647Z,47.37
2019-05-07T09:42:17.992Z,47.43
2019-05-07T09:44:54.049Z,47.71
2019-05-07T09:47:32.287Z,49.16
2019-05-07T09:50:09.062Z,46.16
2019-05-07T09:52:45.097Z,45.94
2019-05-07T09:58:39.061Z,48.26
2019-05-07T10:01:13.511Z,46.69
2019-05-07T10:03:49.468Z,46.28
2019-05-07T10:06:25.426Z,46.81
2019-05-07T10:09:02.871Z,45.20
2019-05-07T10:11:45.118Z,47.14
2019-05-07T10:14:22.387Z,47.65
2019-05-07T10:17:03.060Z,44.45
2019-05-07T10:19:39.029Z,44.66
2019-05-07T10:22:15.384Z,43.68
2019-05-07T10:24:52.202Z,43.32
2019-05-07T10:27:28.539Z,44.08
2019-05-07T10:30:05.166Z,44.55
2019-05-07T10:32:42.440Z,44.56
2019-05-07T10:35:18.761Z,44.97
2019-05-07T10:37:54.708Z,45.10
2019-05-07T10:40:32.579Z,46.72
2019-05-07T10:43:08.678Z,43.86
2019-05-07T10:46:02.456Z,42.30
2019-05-07T10:48:42.811Z,42.42
2019-05-07T10:51:18.859Z,42.51
2019-05-07T10:53:54.827Z,40.00
2019-05-07T10:56:32.607Z,40.31
2019-05-07T10:59:08.584Z,39.04
2019-05-07T11:01:52.422Z,40.32
2019-05-07T11:04:39.300Z,40.15
2019-05-07T11:07:06.183Z,38.75
2019-05-07T11:09:42.124Z,38.17
2019-05-07T11:12:17.998Z,37.59
2019-05-07T11:14:53.933Z,40.07
2019-05-07T11:17:41.880Z,38.00
2019-05-07T11:20:18.343Z,38.13
2019-05-07T11:22:54.301Z,38.92
2019-05-07T11:25:30.368Z,39.87
2019-05-07T11:28:06.518Z,41.38
2019-05-07T11:30:43.292Z,41.75
2019-05-07T11:33:19.260Z,41.67
2019-05-07T11:35:55.204Z,41.47
2019-05-07T11:38:33.093Z,39.07
2019-05-07T11:41:09.783Z,39.44
2019-05-07T11:43:47.375Z,39.00
2019-05-07T11:46:32.697Z,39.69
2019-05-07T11:49:19.471Z,39.01
2019-05-07T11:52:05.966Z,38.83
2019-05-07T11:54:42.147Z,38.52
2019-05-07T11:57:18.287Z,39.39
2019-05-07T11:59:54.437Z,39.12
2019-05-07T12:02:32.025Z,38.98
2019-05-07T12:05:08.988Z,37.77
2019-05-07T12:07:44.990Z,37.52
2019-05-07T12:10:22.283Z,37.33
2019-05-07T12:12:58.326Z,38.91
2019-05-07T12:15:34.292Z,36.29
2019-05-07T12:18:11.920Z,37.57
2019-05-07T12:20:48.049Z,38.40
2019-05-07T12:23:23.995Z,35.60
2019-05-07T12:26:02.168Z,36.22
2019-05-07T12:28:37.648Z,36.91
2019-05-07T12:31:22.457Z,37.41
2019-05-07T12:34:03.079Z,37.62
2019-05-07T12:36:39.028Z,37.08
2019-05-07T12:39:15.218Z,38.02
2019-05-07T12:41:52.444Z,38.48
2019-05-07T12:44:28.555Z,38.88
2019-05-07T12:47:05.894Z,38.65
2019-05-07T12:49:42.870Z,39.08
2019-05-07T12:52:22.755Z,39.25
2019-05-07T12:55:00.353Z,38.73
2019-05-07T12:57:36.314Z,39.62
2019-05-07T13:00:32.295Z,40.13
2019-05-07T13:03:09.932Z,39.37
2019-05-07T13:05:45.891Z,39.23
2019-05-07T13:08:23.016Z,39.48
2019-05-07T13:11:00.268Z,39.63
2019-05-07T13:13:36.215Z,38.91
2019-05-07T13:16:12.770Z,39.05
2019-05-07T13:18:49.571Z,41.61
2019-05-07T13:21:25.528Z,41.88
2019-05-07T13:24:07.259Z,42.17
2019-05-07T13:26:46.953Z,41.80
2019-05-07T13:29:22.831Z,44.36
2019-05-07T13:32:02.770Z,43.69
2019-05-07T13:34:39.441Z,43.40
2019-05-07T13:37:29.928Z,41.83
2019-05-07T13:40:11.937Z,43.55
2019-05-07T13:42:48.716Z,44.00
2019-05-07T13:45:33.058Z,45.36
2019-05-07T13:48:16.897Z,47.00
2019-05-07T13:50:53.159Z,47.19
2019-05-07T13:53:29.128Z,46.47
2019-05-07T13:56:05.392Z,46.50
2019-05-07T13:58:42.879Z,47.07
2019-05-07T14:01:22.837Z,48.85
2019-05-07T14:03:58.579Z,48.97
2019-05-07T14:06:43.000Z,50.54
2019-05-07T14:09:24.340Z,48.20
2019-05-07T14:12:01.886Z,47.35
2019-05-07T14:14:37.425Z,48.48
2019-05-07T14:17:13.421Z,48.34
2019-05-07T14:19:49.375Z,49.78
2019-05-07T14:22:25.321Z,53.54
2019-05-07T14:25:01.297Z,52.37
2019-05-07T14:27:37.241Z,52.04
2019-05-07T14:30:13.652Z,52.25
2019-05-07T14:32:52.600Z,51.80
2019-05-07T14:35:46.414Z,52.71
2019-05-07T14:38:34.953Z,51.05
2019-05-07T14:41:15.223Z,50.54
2019-05-07T14:44:09.396Z,50.56
2019-05-07T14:46:50.740Z,50.38
2019-05-07T14:49:23.059Z,48.64
2019-05-07T14:51:59.004Z,47.71
2019-05-07T14:54:35.896Z,47.05
2019-05-07T14:57:11.882Z,47.85
2019-05-07T14:59:47.913Z,47.83
2019-05-07T15:02:24.367Z,47.64
2019-05-07T15:05:02.660Z,44.07
2019-05-07T15:07:38.237Z,44.43
2019-05-07T15:10:14.411Z,44.53
2019-05-07T15:12:54.879Z,44.15
2019-05-07T15:15:31.636Z,43.59
2019-05-07T15:18:35.523Z,44.56
2019-05-07T15:21:14.480Z,45.03
2019-05-07T15:23:52.983Z,45.71
2019-05-07T15:26:30.180Z,46.23
2019-05-07T15:29:07.774Z,46.29
2019-05-07T15:31:56.629Z,46.26
2019-05-07T15:34:34.014Z,46.85
2019-05-07T15:37:12.391Z,46.79
2019-05-07T15:39:48.895Z,47.57
2019-05-07T15:42:24.040Z,48.01
2019-05-07T15:45:02.127Z,47.89
2019-05-07T15:47:42.360Z,48.31
2019-05-07T15:50:18.349Z,48.59
2019-05-07T15:53:14.268Z,47.64
2019-05-07T15:55:52.569Z,48.12
2019-05-07T15:58:28.756Z,48.91
2019-05-07T16:01:04.821Z,48.17
2019-05-07T16:03:45.266Z,47.90
2019-05-07T16:06:22.040Z,47.57
2019-05-07T16:09:02.499Z,47.82
2019-05-07T16:11:38.872Z,47.97
2019-05-07T16:14:16.476Z,48.17
2019-05-07T16:16:52.531Z,48.48
2019-05-07T16:19:29.101Z,53.77
2019-05-07T16:22:06.588Z,55.29
2019-05-07T16:24:43.629Z,55.42
2019-05-07T16:27:19.567Z,55.40
2019-05-07T16:29:55.484Z,56.30
2019-05-07T16:32:32.870Z,56.50
2019-05-07T16:35:08.871Z,57.11
2019-05-07T16:37:44.838Z,56.53
2019-05-07T16:40:22.956Z,57.39
2019-05-07T16:42:59.017Z,57.24
2019-05-07T16:45:35.003Z,57.30
2019-05-07T16:48:11.940Z,58.18
2019-05-07T16:50:48.063Z,58.15
2019-05-07T16:53:29.740Z,57.97
2019-05-07T16:56:02.947Z,57.54
2019-05-07T16:58:46.295Z,56.97
2019-05-07T17:01:24.470Z,56.10
2019-05-07T17:04:02.601Z,55.65
2019-05-07T17:06:38.349Z,55.25
2019-05-07T17:09:14.836Z,54.11
2019-05-07T17:11:52.717Z,54.81
2019-05-07T17:14:28.572Z,54.76
2019-05-07T17:17:04.551Z,55.56
2019-05-07T17:19:42.423Z,56.08
2019-05-07T17:22:18.085Z,55.98
2019-05-07T17:24:53.972Z,56.00
2019-05-07T17:27:31.669Z,56.19
2019-05-07T17:30:07.810Z,56.88
2019-05-07T17:35:18.624Z,58.25
2019-05-07T17:38:06.091Z,58.50
2019-05-07T17:40:32.201Z,59.12
2019-05-07T17:43:08.082Z,59.11
2019-05-07T17:45:44.002Z,58.71
2019-05-07T17:48:19.886Z,59.34
2019-05-07T17:51:00.290Z,58.76
2019-05-07T17:53:36.208Z,59.23
2019-05-07T17:56:12.805Z,58.75
2019-05-07T17:58:48.783Z,59.53
2019-05-07T18:01:26.269Z,59.15
2019-05-07T18:04:02.929Z,58.24
2019-05-07T18:06:39.164Z,58.12
2019-05-07T18:09:15.311Z,58.74
2019-05-07T18:11:52.255Z,59.19
2019-05-07T18:14:31.958Z,60.18
2019-05-07T18:17:15.152Z,60.34
2019-05-07T18:19:51.122Z,59.61
2019-05-07T18:22:27.081Z,58.46
2019-05-07T18:25:03.603Z,58.87
2019-05-07T18:27:39.608Z,60.49
2019-05-07T18:30:15.860Z,60.85
2019-05-07T18:32:53.353Z,57.86
2019-05-07T18:35:29.309Z,58.72
2019-05-07T18:38:05.377Z,60.81
2019-05-07T18:40:42.162Z,60.65
2019-05-07T18:43:18.406Z,61.05
2019-05-07T18:45:54.365Z,61.40
2019-05-07T18:48:30.430Z,61.37
2019-05-07T18:51:06.397Z,60.63
2019-05-07T18:53:42.653Z,60.12
2019-05-07T18:56:18.702Z,59.52
2019-05-07T18:58:54.668Z,59.49
2019-05-07T19:01:32.821Z,58.79
2019-05-07T19:04:09.027Z,59.14
2019-05-07T19:06:44.996Z,59.20
2019-05-07T19:09:22.517Z,59.18
2019-05-07T19:11:58.662Z,59.12
2019-05-07T19:14:34.706Z,59.25
2019-05-07T19:17:12.208Z,59.41
2019-05-07T19:19:48.144Z,59.42
2019-05-07T19:22:24.102Z,59.96
2019-05-07T19:25:00.075Z,59.89
2019-05-07T19:27:36.025Z,59.99
2019-05-07T19:30:13.046Z,60.14
2019-05-07T19:32:49.362Z,60.27
2019-05-07T19:35:25.429Z,60.31
2019-05-07T19:38:02.860Z,60.42
2019-05-07T19:40:39.071Z,60.86
2019-05-07T19:43:16.266Z,61.00
2019-05-07T19:45:52.495Z,61.14
2019-05-07T19:48:28.692Z,61.81
2019-05-07T19:51:04.647Z,61.97
2019-05-07T19:53:41.997Z,62.13
2019-05-07T19:56:21.911Z,62.46
2019-05-07T19:58:58.135Z,62.75
2019-05-07T20:01:35.845Z,62.94
2019-05-07T20:04:13.260Z,63.09
2019-05-07T20:06:49.388Z,62.68
2019-05-07T20:09:26.992Z,62.49
2019-05-07T20:12:03.313Z,62.79
2019-05-07T20:14:39.222Z,63.13
2019-05-07T20:17:15.157Z,62.89
2019-05-07T20:19:52.721Z,62.96
2019-05-07T20:22:28.679Z,62.71
2019-05-07T20:25:15.406Z,64.00
2019-05-07T20:27:44.309Z,64.67
2019-05-07T20:30:22.737Z,65.32
2019-05-07T20:32:58.063Z,65.24
2019-05-07T20:35:37.305Z,65.48
2019-05-07T20:38:11.727Z,65.57
2019-05-07T20:40:47.672Z,65.66
2019-05-07T20:43:23.846Z,65.89
2019-05-07T20:45:59.903Z,66.21
2019-05-07T20:48:35.806Z,66.18
2019-05-07T20:51:12.504Z,66.26
2019-05-07T20:54:05.305Z,66.66
2019-05-07T20:56:42.833Z,66.84
2019-05-07T20:59:18.739Z,67.20
2019-05-07T21:01:54.690Z,67.63
2019-05-07T21:04:32.823Z,67.88
2019-05-07T21:07:11.579Z,68.04
2019-05-07T21:09:46.552Z,68.17
2019-05-07T21:12:22.743Z,68.20
2019-05-07T21:14:59.193Z,68.50
2019-05-07T21:17:35.128Z,68.78
2019-05-07T21:20:12.415Z,69.14
2019-05-07T21:22:48.373Z,69.08
2019-05-07T21:25:24.327Z,69.02
2019-05-07T21:28:02.123Z,69.02
2019-05-07T21:30:37.980Z,69.46
2019-05-07T21:33:13.948Z,69.83
2019-05-07T21:35:52.087Z,70.03
2019-05-07T21:38:28.516Z,70.09
2019-05-07T21:41:04.472Z,70.01
2019-05-07T21:43:43.063Z,70.18
2019-05-07T21:46:18.121Z,70.11
2019-05-07T21:48:54.090Z,70.36
2019-05-07T21:51:29.989Z,70.42
2019-05-07T21:54:13.570Z,70.21
2019-05-07T21:56:52.221Z,70.33
2019-05-07T21:59:35.011Z,70.54
2019-05-07T22:02:15.990Z,70.66
2019-05-07T22:04:52.899Z,70.70
2019-05-07T22:07:29.132Z,70.84
2019-05-07T22:10:07.648Z,70.91
2019-05-07T22:12:43.606Z,70.96
2019-05-07T22:15:22.481Z,71.05
2019-05-07T22:17:58.589Z,71.16
2019-05-07T22:20:34.545Z,71.54
2019-05-07T22:23:10.490Z,71.95
2019-05-07T22:25:46.454Z,72.40
2019-05-07T22:28:22.596Z,72.88
2019-05-07T22:31:02.203Z,72.96
2019-05-07T22:33:39.335Z,72.98
2019-05-07T22:36:15.299Z,73.40
2019-05-07T22:39:09.269Z,73.29
2019-05-07T22:41:46.772Z,73.64
2019-05-07T22:44:26.376Z,73.42
2019-05-07T22:47:03.284Z,73.44
2019-05-07T22:49:39.250Z,73.64
2019-05-07T22:52:15.196Z,73.54
2019-05-07T22:54:51.162Z,73.82
2019-05-07T22:57:28.644Z,73.83
2019-05-07T23:00:07.683Z,74.23
2019-05-07T23:02:45.174Z,74.34
2019-05-07T23:05:23.002Z,74.21
2019-05-07T23:07:58.828Z,74.48
2019-05-07T23:10:34.783Z,74.56
2019-05-07T23:13:12.840Z,74.53
2019-05-07T23:15:48.314Z,74.54
2019-05-07T23:18:24.289Z,74.50
2019-05-07T23:21:00.247Z,74.53
2019-05-07T23:23:36.398Z,74.66
2019-05-07T23:26:14.768Z,74.74
2019-05-07T23:28:51.879Z,75.01
2019-05-07T23:31:27.762Z,75.30
2019-05-07T23:34:03.717Z,75.46
2019-05-07T23:36:39.666Z,75.74
2019-05-07T23:39:17.154Z,75.78
2019-05-07T23:42:03.883Z,76.06
2019-05-07T23:44:41.431Z,76.00
2019-05-07T23:47:17.518Z,76.32
2019-05-07T23:49:53.486Z,76.22
2019-05-07T23:52:29.426Z,76.05
2019-05-07T23:55:06.148Z,76.00
2019-05-07T23:57:43.082Z,76.03
